createdAt,value
2022-10-28T00:03:54.571Z,7.70
2022-10-28T00:08:58.423Z,7.60
2022-10-28T00:14:05.100Z,7.70
2022-10-28T00:19:12.350Z,7.70
2022-10-28T00:24:16.193Z,7.70
2022-10-28T00:29:20.771Z,7.60
2022-10-28T00:34:24.121Z,7.60
2022-10-28T00:39:27.937Z,7.60
2022-10-28T00:44:44.210Z,7.60
2022-10-28T00:49:50.709Z,7.60
2022-10-28T00:54:55.832Z,7.60
2022-10-28T01:00:03.499Z,7.70
2022-10-28T01:05:07.794Z,7.60
2022-10-28T01:10:12.993Z,7.60
2022-10-28T01:15:40.354Z,7.70
2022-10-28T01:20:58.692Z,7.70
2022-10-28T01:26:29.893Z,7.80
2022-10-28T01:31:46.133Z,7.80
2022-10-28T01:37:13.792Z,7.90
2022-10-28T01:42:28.661Z,7.90
2022-10-28T01:47:35.022Z,8.00
2022-10-28T01:52:40.752Z,8.00
2022-10-28T01:57:44.452Z,8.10
2022-10-28T02:02:51.192Z,8.10
2022-10-28T02:08:02.094Z,8.20
2022-10-28T02:13:13.018Z,8.20
2022-10-28T02:18:39.969Z,8.20
2022-10-28T02:23:53.552Z,8.20
2022-10-28T02:29:09.312Z,8.20
2022-10-28T02:34:22.273Z,8.20
2022-10-28T02:39:38.842Z,8.20
2022-10-28T02:44:49.322Z,8.30
2022-10-28T02:49:57.951Z,8.30
2022-10-28T02:55:06.500Z,8.30
2022-10-28T03:00:15.717Z,8.40
2022-10-28T03:05:19.004Z,8.40
2022-10-28T03:10:22.342Z,8.40
2022-10-28T03:15:25.963Z,8.40
2022-10-28T03:20:29.763Z,8.50
2022-10-28T03:25:33.358Z,8.50
2022-10-28T03:30:36.465Z,8.50
2022-10-28T03:35:39.712Z,8.50
2022-10-28T03:40:43.067Z,8.60
2022-10-28T03:45:46.242Z,8.60
2022-10-28T03:51:09.902Z,8.70
2022-10-28T03:56:13.513Z,8.60
2022-10-28T04:01:17.354Z,8.70
2022-10-28T04:06:20.896Z,8.70
2022-10-28T04:11:24.231Z,8.80
2022-10-28T04:16:27.257Z,8.80
2022-10-28T04:21:30.576Z,8.80
2022-10-28T04:26:33.836Z,8.70
2022-10-28T04:31:37.286Z,8.70
2022-10-28T04:36:40.967Z,8.80
2022-10-28T04:41:44.459Z,8.80
2022-10-28T04:46:47.734Z,8.80
2022-10-28T04:51:52.059Z,8.70
2022-10-28T04:56:55.787Z,8.80
2022-10-28T05:01:59.644Z,8.80
2022-10-28T05:07:03.207Z,8.80
2022-10-28T05:12:07.188Z,8.80
2022-10-28T05:17:13.586Z,8.70
2022-10-28T05:22:19.186Z,8.70
2022-10-28T05:27:22.636Z,8.80
2022-10-28T05:32:25.747Z,8.70
2022-10-28T05:37:28.696Z,8.80
2022-10-28T05:42:32.054Z,8.80
2022-10-28T05:47:37.777Z,8.70
2022-10-28T05:52:54.526Z,8.70
2022-10-28T05:57:58.240Z,8.70
2022-10-28T06:08:39.194Z,8.80
2022-10-28T06:13:42.025Z,8.80
2022-10-28T06:18:45.671Z,8.80
2022-10-28T06:23:49.171Z,8.80
2022-10-28T06:28:52.515Z,8.80
2022-10-28T06:33:56.660Z,8.90
2022-10-28T06:39:00.037Z,9.00
2022-10-28T06:44:08.148Z,9.00
2022-10-28T06:49:13.248Z,9.00
2022-10-28T06:54:16.525Z,9.10
2022-10-28T06:59:19.593Z,9.20
2022-10-28T07:04:23.027Z,9.30
2022-10-28T07:09:26.680Z,9.30
2022-10-28T07:14:30.225Z,9.50
2022-10-28T07:19:33.631Z,9.60
2022-10-28T07:24:36.952Z,9.60
2022-10-28T07:29:40.256Z,9.70
2022-10-28T07:34:43.637Z,9.90
2022-10-28T07:39:46.931Z,10.00
2022-10-28T07:44:50.341Z,10.10
2022-10-28T07:49:54.713Z,10.20
2022-10-28T07:54:58.245Z,10.40
2022-10-28T08:00:01.785Z,10.60
2022-10-28T08:05:05.662Z,10.80
2022-10-28T08:10:09.489Z,11.00
2022-10-28T08:15:15.570Z,11.40
2022-10-28T08:20:18.847Z,11.70
2022-10-28T08:25:22.475Z,12.00
2022-10-28T08:30:40.398Z,12.30
2022-10-28T08:35:53.572Z,12.50
2022-10-28T08:42:03.175Z,12.70
2022-10-28T08:47:32.430Z,12.90
2022-10-28T08:52:45.064Z,13.30
2022-10-28T08:57:57.241Z,13.70
2022-10-28T09:03:12.159Z,13.80
2022-10-28T09:08:26.559Z,13.90
2022-10-28T09:13:52.376Z,14.20
2022-10-28T09:18:59.728Z,14.20
2022-10-28T09:24:19.465Z,14.30
2022-10-28T09:29:44.400Z,14.50
2022-10-28T09:34:58.443Z,14.80
2022-10-28T09:40:24.053Z,15.30
2022-10-28T09:45:31.638Z,15.60
2022-10-28T09:50:34.834Z,16.00
2022-10-28T09:55:38.076Z,16.30
2022-10-28T10:00:41.422Z,16.60
2022-10-28T10:05:49.883Z,16.60
2022-10-28T10:11:14.321Z,16.80
2022-10-28T10:16:56.610Z,17.10
2022-10-28T10:21:59.671Z,17.20
2022-10-28T10:27:12.211Z,17.10
2022-10-28T10:32:27.470Z,17.00
2022-10-28T10:37:34.480Z,17.00
2022-10-28T10:42:46.525Z,17.10
2022-10-28T10:48:15.556Z,17.20
2022-10-28T10:53:29.093Z,17.20
2022-10-28T10:58:36.848Z,17.30
2022-10-28T11:03:59.915Z,17.20
2022-10-28T11:09:08.099Z,17.20
2022-10-28T11:14:13.090Z,17.10
2022-10-28T11:19:21.202Z,17.00
2022-10-28T11:24:47.866Z,16.90
2022-10-28T11:29:51.554Z,16.80
2022-10-28T11:35:26.755Z,16.60
2022-10-28T11:41:11.913Z,16.40
2022-10-28T11:46:45.272Z,16.20
2022-10-28T11:52:04.003Z,16.00
2022-10-28T11:57:17.662Z,16.00
2022-10-28T12:02:42.578Z,16.10
2022-10-28T12:08:07.714Z,16.20
2022-10-28T12:13:29.742Z,16.20
2022-10-28T12:18:58.833Z,16.30
2022-10-28T12:24:04.125Z,16.40
2022-10-28T12:29:16.900Z,16.50
2022-10-28T12:34:31.997Z,16.40
2022-10-28T12:39:50.026Z,16.50
2022-10-28T12:44:58.128Z,16.60
2022-10-28T12:50:09.308Z,16.50
2022-10-28T13:00:26.341Z,16.70
2022-10-28T13:05:44.013Z,16.90
2022-10-28T13:11:11.522Z,17.00
2022-10-28T13:16:52.011Z,17.00
2022-10-28T13:22:21.959Z,17.00
2022-10-28T13:27:26.483Z,17.00
2022-10-28T13:32:43.430Z,17.20
2022-10-28T13:37:49.682Z,17.20
2022-10-28T13:42:53.470Z,17.10
2022-10-28T13:48:29.032Z,17.00
2022-10-28T13:53:33.257Z,17.00
2022-10-28T13:58:39.528Z,17.00
2022-10-28T14:03:52.714Z,17.00
2022-10-28T14:08:57.240Z,17.20
2022-10-28T14:14:05.000Z,17.30
2022-10-28T14:19:10.863Z,17.40
2022-10-28T14:24:32.381Z,17.40
2022-10-28T14:29:54.590Z,17.30
2022-10-28T14:35:02.280Z,17.30
2022-10-28T14:40:34.899Z,17.20
2022-10-28T14:46:06.579Z,17.10
2022-10-28T14:51:15.781Z,17.10
2022-10-28T14:56:31.479Z,17.10
2022-10-28T15:01:57.731Z,17.00
2022-10-28T15:07:02.378Z,16.90
2022-10-28T15:12:12.265Z,16.90
2022-10-28T15:17:22.186Z,16.80
2022-10-28T15:22:34.086Z,16.70
2022-10-28T15:27:41.709Z,16.70
2022-10-28T15:32:45.997Z,16.60
2022-10-28T15:37:49.667Z,16.50
2022-10-28T15:43:05.085Z,16.50
2022-10-28T15:48:15.195Z,16.50
2022-10-28T15:53:32.891Z,16.40
2022-10-28T15:58:40.466Z,16.30
2022-10-28T16:03:48.137Z,16.30
2022-10-28T16:09:10.236Z,16.30
2022-10-28T16:14:39.874Z,16.20
2022-10-28T16:19:58.373Z,16.20
2022-10-28T16:25:01.806Z,16.10
2022-10-28T16:30:05.955Z,16.10
2022-10-28T16:35:20.647Z,16.00
2022-10-28T16:45:50.066Z,15.90
2022-10-28T16:50:57.585Z,15.80
2022-10-28T16:56:01.333Z,15.80
2022-10-28T17:01:04.774Z,15.70
2022-10-28T17:06:09.354Z,15.60
2022-10-28T17:11:17.703Z,15.50
2022-10-28T17:16:21.343Z,15.50
2022-10-28T17:21:26.764Z,15.50
2022-10-28T17:26:31.476Z,15.40
2022-10-28T17:31:35.875Z,15.40
2022-10-28T17:36:39.796Z,15.40
2022-10-28T17:41:44.207Z,15.50
2022-10-28T17:46:51.983Z,15.60
2022-10-28T17:51:55.525Z,15.60
2022-10-28T17:56:59.149Z,15.60
2022-10-28T18:02:07.516Z,15.60
2022-10-28T18:07:11.486Z,15.60
2022-10-28T18:12:15.313Z,15.60
2022-10-28T18:17:19.125Z,15.50
2022-10-28T18:22:27.024Z,15.40
2022-10-28T18:27:44.836Z,15.20
2022-10-28T18:32:53.618Z,15.10
2022-10-28T18:38:06.606Z,14.90
2022-10-28T18:43:11.120Z,14.80
2022-10-28T18:48:16.587Z,14.60
2022-10-28T18:53:32.746Z,14.40
2022-10-28T18:58:40.778Z,14.20
2022-10-28T19:03:46.317Z,14.00
2022-10-28T19:09:02.284Z,14.00
2022-10-28T19:14:14.388Z,14.00
2022-10-28T19:19:24.426Z,14.00
2022-10-28T19:24:39.537Z,14.00
2022-10-28T19:29:44.307Z,14.00
2022-10-28T19:34:56.308Z,14.00
2022-10-28T19:40:00.874Z,14.00
2022-10-28T19:45:08.177Z,13.90
2022-10-28T19:50:11.775Z,14.00
2022-10-28T19:55:16.406Z,14.10
2022-10-28T20:00:20.507Z,14.30
2022-10-28T20:05:24.386Z,14.30
2022-10-28T20:10:28.632Z,14.40
2022-10-28T20:15:32.777Z,14.40
2022-10-28T20:20:38.256Z,14.40
2022-10-28T20:25:53.407Z,14.30
2022-10-28T20:31:02.947Z,14.30
2022-10-28T20:36:21.277Z,14.20
2022-10-28T20:41:26.152Z,14.10
2022-10-28T20:46:29.837Z,14.10
2022-10-28T20:51:34.443Z,14.00
2022-10-28T20:56:39.497Z,13.90
2022-10-28T21:01:43.192Z,13.80
2022-10-28T21:06:46.768Z,13.50
2022-10-28T21:11:50.342Z,13.20
2022-10-28T21:16:54.100Z,13.10
2022-10-28T21:21:57.910Z,13.00
2022-10-28T21:27:01.106Z,12.80
2022-10-28T21:32:04.736Z,12.70
2022-10-28T21:37:08.607Z,12.60
2022-10-28T21:42:11.896Z,12.40
2022-10-28T21:47:15.078Z,12.30
2022-10-28T21:52:18.802Z,12.30
2022-10-28T21:57:22.246Z,12.20
2022-10-28T22:02:25.943Z,12.10
2022-10-28T22:07:29.368Z,12.10
2022-10-28T22:12:32.615Z,12.00
2022-10-28T22:17:35.837Z,12.00
2022-10-28T22:22:39.136Z,11.90
2022-10-28T22:27:42.629Z,11.80
2022-10-28T22:32:45.599Z,11.80
2022-10-28T22:37:48.547Z,11.60
2022-10-28T22:42:51.823Z,11.50
2022-10-28T22:47:55.415Z,11.40
2022-10-28T22:52:58.997Z,11.30
2022-10-28T22:58:03.831Z,11.30
2022-10-28T23:03:07.536Z,11.20
2022-10-28T23:08:19.724Z,11.20
2022-10-28T23:13:41.739Z,11.20
2022-10-28T23:18:53.656Z,11.10
2022-10-28T23:23:59.861Z,11.00
2022-10-28T23:29:04.476Z,10.90
2022-10-28T23:34:08.116Z,10.80
2022-10-28T23:39:11.795Z,10.70
2022-10-28T23:44:16.316Z,10.60
2022-10-28T23:49:22.934Z,10.50
2022-10-28T23:54:26.547Z,10.50
2022-10-28T23:59:35.879Z,10.40
